Time;durP1;ratioP1;P1;durP2;ratioP2;P2;SDS_P1;SDS_P2;PMS_P1;PMS_P2;Temp;Humidity;BMP_temperature;BMP_pressure;BME280_temperature;BME280_humidity;BME280_pressure;Samples;Min_cycle;Max_cycle;Signal;HPM_P1;HPM_P2
2021/01/29 00:01:13;;;;;;;;;;;;;;;10.77;75.45;98630.06;3136263;28;20387;-79
2021/01/29 00:02:44;;;;;;;;;;;;;;;10.83;75.23;98620.50;3140839;28;19924;-79
2021/01/29 00:04:15;;;;;;;;;;;;;;;10.83;75.16;98622.34;3136648;28;19947;-79
2021/01/29 00:05:51;;;;;;;;;;;;;;;10.86;75.13;98614.78;3141270;28;19931;-80
2021/01/29 00:07:23;;;;;;;;;;;;;;;10.83;75.08;98617.00;3136651;28;19936;-79
2021/01/29 00:08:55;;;;;;;;;;;;;;;10.85;74.97;98607.78;3141962;28;19932;-79
2021/01/29 00:10:29;;;;;;;;;;;;;;;10.87;74.98;98603.09;3138217;28;19925;-79
2021/01/29 00:12:01;;;;;;;;;;;;;;;10.90;75.03;98601.88;3140424;28;19952;-78
2021/01/29 00:13:41;;;;;;;;;;;;;;;10.93;75.60;98598.84;3136467;28;20372;-78
2021/01/29 00:15:14;;;;;;;;;;;;;;;10.86;75.74;98600.59;3133145;28;19932;-78
2021/01/29 00:16:45;;;;;;;;;;;;;;;10.86;76.14;98596.06;3136126;28;20395;-79
2021/01/29 00:18:23;;;;;;;;;;;;;;;10.84;76.16;98594.59;3132080;28;19924;-78
2021/01/29 00:19:54;;;;;;;;;;;;;;;10.74;76.86;98593.03;3133491;28;20277;-79
2021/01/29 00:21:26;;;;;;;;;;;;;;;10.73;77.09;98583.34;3128102;28;19925;-78
2021/01/29 00:22:59;;;;;;;;;;;;;;;10.59;77.61;98582.28;3136077;28;19936;-78
2021/01/29 00:24:30;;;;;;;;;;;;;;;10.57;77.68;98591.50;3129847;28;20395;-78
2021/01/29 00:26:02;;;;;;;;;;;;;;;10.54;78.19;98582.00;3137777;28;19929;-78
2021/01/29 00:27:34;;;;;;;;;;;;;;;10.50;78.04;98575.38;3133631;28;19924;-79
2021/01/29 00:29:06;;;;;;;;;;;;;;;10.49;78.19;98567.50;3135277;28;19925;-79
2021/01/29 00:30:37;;;;;;;;;;;;;;;10.48;78.45;98564.00;3132649;28;20314;-79
2021/01/29 00:32:11;;;;;;;;;;;;;;;10.51;78.28;98560.16;3135546;28;19932;-79
2021/01/29 00:33:42;;;;;;;;;;;;;;;10.56;78.20;98563.13;3124182;28;19933;-79
2021/01/29 00:35:13;;;;;;;;;;;;;;;10.54;78.28;98555.28;3132055;28;19925;-78
2021/01/29 00:36:45;;;;;;;;;;;;;;;10.54;78.24;98549.09;3127074;28;19925;-78
2021/01/29 00:38:16;;;;;;;;;;;;;;;10.55;77.98;98554.25;3123577;28;20372;-78
2021/01/29 00:39:46;;;;;;;;;;;;;;;10.60;78.00;98553.72;3118782;28;19925;-79
2021/01/29 00:41:21;;;;;;;;;;;;;;;10.63;78.11;98547.19;3122177;28;19936;-78
2021/01/29 00:42:54;;;;;;;;;;;;;;;10.67;77.78;98538.63;3113119;28;19926;-78
2021/01/29 00:44:25;;;;;;;;;;;;;;;10.69;77.53;98541.94;3131000;28;20337;-78
2021/01/29 00:45:56;;;;;;;;;;;;;;;10.69;77.57;98531.25;3129801;28;19947;-78
2021/01/29 00:47:27;;;;;;;;;;;;;;;10.72;77.36;98530.06;3114694;28;20087;-78
2021/01/29 00:48:58;;;;;;;;;;;;;;;10.71;77.26;98531.09;3120618;28;19936;-78
2021/01/29 00:50:29;;;;;;;;;;;;;;;10.73;77.40;98527.22;3123833;28;19932;-78
2021/01/29 00:52:00;;;;;;;;;;;;;;;10.77;77.29;98528.47;3117348;28;19925;-78
2021/01/29 00:53:31;;;;;;;;;;;;;;;10.79;76.90;98528.31;3128325;28;19925;-78
2021/01/29 00:55:03;;;;;;;;;;;;;;;10.82;76.99;98529.78;3118969;28;19925;-78
2021/01/29 00:56:34;;;;;;;;;;;;;;;10.80;77.00;98518.44;3135660;28;19929;-78
2021/01/29 00:58:06;;;;;;;;;;;;;;;10.78;76.86;98524.00;3123117;28;19925;-79
2021/01/29 00:59:37;;;;;;;;;;;;;;;10.76;76.75;98529.53;3135564;28;19979;-78
2021/01/29 01:01:08;;;;;;;;;;;;;;;10.73;76.76;98510.31;3130770;28;20359;-78
2021/01/29 01:02:40;;;;;;;;;;;;;;;10.70;76.83;98510.72;3134252;28;19986;-78
2021/01/29 01:04:12;;;;;;;;;;;;;;;10.73;76.71;98500.47;3132227;28;20027;-78
2021/01/29 01:05:43;;;;;;;;;;;;;;;10.80;76.73;98502.41;3133142;28;19951;-78
2021/01/29 01:07:15;;;;;;;;;;;;;;;10.80;76.34;98497.06;3132751;28;20379;-78
2021/01/29 01:08:46;;;;;;;;;;;;;;;10.79;76.33;98498.91;3128385;28;19925;-78
2021/01/29 01:10:17;;;;;;;;;;;;;;;10.76;76.28;98500.13;3128254;28;19924;-78
2021/01/29 01:11:48;;;;;;;;;;;;;;;10.79;76.25;98498.06;3130404;28;19929;-78
2021/01/29 01:13:21;;;;;;;;;;;;;;;10.79;76.41;98492.72;3143658;28;19924;-78
2021/01/29 01:14:52;;;;;;;;;;;;;;;10.83;76.18;98496.69;3132094;28;20383;-78
2021/01/29 01:16:25;;;;;;;;;;;;;;;10.88;76.10;98491.63;3131856;28;20384;-78
2021/01/29 01:17:58;;;;;;;;;;;;;;;10.90;76.08;98489.59;3135361;28;19932;-78
2021/01/29 01:19:30;;;;;;;;;;;;;;;10.90;75.95;98486.94;3132926;28;19994;-79
2021/01/29 01:21:01;;;;;;;;;;;;;;;10.97;75.97;98490.50;3135343;28;20462;-78
2021/01/29 01:22:32;;;;;;;;;;;;;;;10.97;75.63;98479.81;3132790;28;19948;-78
2021/01/29 01:24:03;;;;;;;;;;;;;;;11.00;75.58;98482.13;3127684;28;19925;-79
2021/01/29 01:25:37;;;;;;;;;;;;;;;10.93;75.42;98473.19;3122946;28;19929;-78
2021/01/29 01:27:08;;;;;;;;;;;;;;;10.92;75.38;98476.88;3131852;28;19929;-78
2021/01/29 01:28:41;;;;;;;;;;;;;;;10.88;75.70;98478.25;3135284;28;19928;-79
2021/01/29 01:30:14;;;;;;;;;;;;;;;10.89;75.97;98482.59;3131935;28;19959;-78
2021/01/29 01:31:45;;;;;;;;;;;;;;;10.86;76.05;98469.63;3135375;28;19975;-78
2021/01/29 01:33:16;;;;;;;;;;;;;;;10.85;76.29;98470.63;3132107;28;19925;-78
2021/01/29 01:34:48;;;;;;;;;;;;;;;10.80;76.09;98462.31;3135695;28;20006;-78
2021/01/29 01:36:19;;;;;;;;;;;;;;;10.76;76.36;98459.19;3134179;28;20306;-78
2021/01/29 01:37:50;;;;;;;;;;;;;;;10.69;76.88;98453.75;3137881;28;19925;-79
2021/01/29 01:39:21;;;;;;;;;;;;;;;10.58;77.43;98446.22;3135033;28;19971;-78
2021/01/29 01:40:58;;;;;;;;;;;;;;;10.45;78.24;98455.69;3127620;28;19929;-78
2021/01/29 01:44:22;;;;;;;;;;;;;;;10.40;79.13;98451.91;3336405;23;20023;-78
2021/01/29 01:45:58;;;;;;;;;;;;;;;10.32;78.89;98434.06;3104295;28;19933;-78
2021/01/29 01:47:32;;;;;;;;;;;;;;;10.26;79.28;98445.50;3100939;28;19973;-79
2021/01/29 01:49:08;;;;;;;;;;;;;;;10.22;79.69;98452.19;3093046;28;19926;-78
2021/01/29 01:50:40;;;;;;;;;;;;;;;10.17;80.75;98443.91;3100889;28;19925;-78
2021/01/29 01:52:14;;;;;;;;;;;;;;;10.12;80.48;98437.25;3089699;28;20293;-78
2021/01/29 01:53:47;;;;;;;;;;;;;;;10.15;80.90;98436.91;3098714;28;20008;-78
2021/01/29 01:55:20;;;;;;;;;;;;;;;10.11;80.64;98432.94;3095891;28;19989;-78
2021/01/29 01:56:54;;;;;;;;;;;;;;;10.09;80.78;98428.78;3102322;28;19926;-78
2021/01/29 01:58:27;;;;;;;;;;;;;;;10.08;81.75;98424.44;3097009;28;19937;-78
2021/01/29 02:00:00;;;;;;;;;;;;;;;10.10;81.55;98425.09;3112598;28;19929;-78
2021/01/29 02:01:32;;;;;;;;;;;;;;;10.14;81.86;98415.72;3109438;28;19925;-78
2021/01/29 02:03:05;;;;;;;;;;;;;;;10.10;81.29;98401.91;3109733;28;19984;-79
2021/01/29 02:04:40;;;;;;;;;;;;;;;10.15;81.40;98396.03;3099201;28;19926;-78
2021/01/29 02:06:12;;;;;;;;;;;;;;;10.20;81.24;98392.81;3099935;28;19980;-78
2021/01/29 02:07:55;;;;;;;;;;;;;;;10.23;81.04;98395.09;3112971;28;20382;-78
2021/01/29 02:09:28;;;;;;;;;;;;;;;10.26;81.08;98394.75;3102909;28;19949;-78
2021/01/29 02:10:59;;;;;;;;;;;;;;;10.26;81.09;98390.22;3100914;28;19932;-78
2021/01/29 02:12:31;;;;;;;;;;;;;;;10.26;81.31;98389.41;3096437;28;19926;-78
2021/01/29 02:14:08;;;;;;;;;;;;;;;10.24;81.35;98397.63;3106754;28;19926;-78
2021/01/29 02:20:10;;;;;;;;;;;;;;;10.31;81.16;98378.97;3107220;28;19921;-78
2021/01/29 02:25:16;;;;;;;;;;;;;;;10.27;81.62;98361.69;3386714;23;20393;-79
2021/01/29 02:26:57;;;;;;;;;;;;;;;10.26;81.68;98365.38;3100409;28;20270;-78
2021/01/29 02:28:37;;;;;;;;;;;;;;;10.28;81.58;98358.00;3096361;28;20282;-79
2021/01/29 02:30:23;;;;;;;;;;;;;;;10.28;81.64;98337.47;3098140;28;20389;-79
2021/01/29 02:32:03;;;;;;;;;;;;;;;10.27;81.84;98351.81;3090532;28;19926;-80
2021/01/29 02:33:58;;;;;;;;;;;;;;;10.26;81.67;98333.31;3096264;28;20036;-78
2021/01/29 02:35:51;;;;;;;;;;;;;;;10.22;81.84;98335.53;3094620;28;19930;-78
2021/01/29 02:37:46;;;;;;;;;;;;;;;10.14;82.23;98332.97;3093852;28;19936;-78
2021/01/29 02:39:40;;;;;;;;;;;;;;;10.05;82.36;98328.72;3085080;28;20278;-78
2021/01/29 02:41:17;;;;;;;;;;;;;;;10.06;82.32;98323.19;3108347;28;19937;-79
2021/01/29 02:42:52;;;;;;;;;;;;;;;10.04;82.63;98319.06;3087889;28;19934;-78
2021/01/29 02:44:30;;;;;;;;;;;;;;;10.04;82.70;98309.19;3099303;28;19926;-78
2021/01/29 02:46:05;;;;;;;;;;;;;;;10.04;82.53;98301.19;3092778;28;19937;-79
2021/01/29 02:47:44;;;;;;;;;;;;;;;10.02;82.75;98294.38;3087972;28;19926;-78
2021/01/29 02:49:19;;;;;;;;;;;;;;;10.00;82.47;98283.88;3090175;28;20008;-79
2021/01/29 02:50:57;;;;;;;;;;;;;;;9.94;82.94;98285.44;3100543;28;19929;-79
2021/01/29 02:52:32;;;;;;;;;;;;;;;9.94;82.88;98281.94;3097615;28;20316;-78
2021/01/29 02:54:07;;;;;;;;;;;;;;;9.93;83.38;98280.28;3097011;28;19925;-77
2021/01/29 02:55:39;;;;;;;;;;;;;;;9.93;83.12;98278.44;3100602;28;20002;-78
2021/01/29 02:57:14;;;;;;;;;;;;;;;9.93;83.05;98264.25;3096902;28;20016;-77
2021/01/29 02:58:51;;;;;;;;;;;;;;;9.94;82.97;98249.91;3100910;28;19969;-77
2021/01/29 03:00:27;;;;;;;;;;;;;;;9.95;83.04;98264.91;3096111;28;21369;-77
2021/01/29 03:05:20;;;;;;;;;;;;;;;9.88;82.84;98267.47;3098815;28;19953;-78
2021/01/29 03:06:54;;;;;;;;;;;;;;;9.90;83.01;98259.31;3089834;28;19926;-77
2021/01/29 03:08:27;;;;;;;;;;;;;;;9.86;82.90;98258.00;3102308;28;19933;-78
2021/01/29 03:10:01;;;;;;;;;;;;;;;9.86;83.15;98252.66;3097541;28;19926;-78
2021/01/29 03:11:37;;;;;;;;;;;;;;;9.86;83.26;98253.50;3101677;28;19936;-78
2021/01/29 03:13:12;;;;;;;;;;;;;;;9.84;82.97;98256.34;3084866;28;20030;-77
2021/01/29 03:14:45;;;;;;;;;;;;;;;9.83;83.39;98243.19;3089430;28;19938;-78
2021/01/29 03:16:28;;;;;;;;;;;;;;;9.81;83.06;98243.38;3093542;28;19926;-78
2021/01/29 03:18:02;;;;;;;;;;;;;;;9.84;83.00;98245.66;3095920;28;19926;-78
2021/01/29 03:19:36;;;;;;;;;;;;;;;9.86;82.83;98237.50;3086279;28;20407;-78
2021/01/29 03:21:10;;;;;;;;;;;;;;;9.86;82.82;98234.00;3085051;28;19926;-78
2021/01/29 03:22:45;;;;;;;;;;;;;;;9.86;82.74;98232.16;3080804;28;19927;-79
2021/01/29 03:24:19;;;;;;;;;;;;;;;9.89;82.42;98230.97;3093034;28;19933;-79
2021/01/29 03:25:56;;;;;;;;;;;;;;;9.82;82.60;98226.34;3095111;28;19926;-79
2021/01/29 03:27:40;;;;;;;;;;;;;;;9.87;82.51;98209.78;3089268;28;20277;-77
2021/01/29 03:29:43;;;;;;;;;;;;;;;9.88;82.46;98210.63;3092723;28;19922;-78
2021/01/29 03:31:16;;;;;;;;;;;;;;;9.91;82.04;98202.25;3089429;28;19930;-79
2021/01/29 03:32:50;;;;;;;;;;;;;;;9.90;82.16;98206.75;3097621;28;19926;-78
2021/01/29 03:34:24;;;;;;;;;;;;;;;9.90;81.97;98195.25;3092101;28;19963;-78
2021/01/29 03:35:59;;;;;;;;;;;;;;;9.90;81.95;98200.59;3094098;28;20001;-78
2021/01/29 03:37:34;;;;;;;;;;;;;;;9.88;82.11;98194.59;3084172;28;19930;-78
2021/01/29 03:39:08;;;;;;;;;;;;;;;9.91;81.82;98189.72;3082192;28;19926;-77
2021/01/29 03:40:40;;;;;;;;;;;;;;;9.94;81.77;98184.03;3086377;28;20297;-78
2021/01/29 03:42:17;;;;;;;;;;;;;;;9.95;81.61;98180.34;3075150;28;19976;-77
2021/01/29 03:44:03;;;;;;;;;;;;;;;9.96;81.43;98179.31;3086390;28;19930;-77
2021/01/29 03:45:39;;;;;;;;;;;;;;;9.99;81.62;98178.13;3082653;28;19953;-77
2021/01/29 03:47:14;;;;;;;;;;;;;;;9.99;81.47;98175.44;3087608;28;19926;-77
2021/01/29 03:48:53;;;;;;;;;;;;;;;9.99;81.48;98178.13;3079989;28;19926;-77
2021/01/29 03:50:33;;;;;;;;;;;;;;;9.99;81.28;98172.78;3087476;28;19934;-77
2021/01/29 03:52:11;;;;;;;;;;;;;;;10.05;81.40;98173.88;3082532;28;19933;-78
2021/01/29 03:53:50;;;;;;;;;;;;;;;10.05;81.32;98166.69;3075705;29;19926;-77
2021/01/29 03:55:27;;;;;;;;;;;;;;;10.06;81.21;98171.00;3078958;28;19926;-77
2021/01/29 03:57:03;;;;;;;;;;;;;;;10.04;81.25;98157.00;3087691;28;19930;-78
2021/01/29 03:58:40;;;;;;;;;;;;;;;10.10;80.97;98158.09;3085036;28;19937;-77
2021/01/29 04:00:14;;;;;;;;;;;;;;;10.08;80.98;98152.97;3084239;28;19926;-77
2021/01/29 04:01:51;;;;;;;;;;;;;;;10.07;81.10;98156.66;3087551;28;19926;-78
2021/01/29 04:03:27;;;;;;;;;;;;;;;10.13;80.74;98150.53;3083023;28;20293;-77
2021/01/29 04:05:05;;;;;;;;;;;;;;;10.15;80.83;98148.53;3087090;28;19926;-79
2021/01/29 04:06:39;;;;;;;;;;;;;;;10.15;80.39;98142.38;3083902;28;19961;-77
2021/01/29 04:08:12;;;;;;;;;;;;;;;10.21;80.12;98143.44;3089606;28;20350;-77
2021/01/29 04:09:45;;;;;;;;;;;;;;;10.17;80.30;98134.16;3084810;28;19926;-77
2021/01/29 04:11:19;;;;;;;;;;;;;;;10.21;80.10;98133.59;3087082;28;19926;-77
2021/01/29 04:12:54;;;;;;;;;;;;;;;10.21;80.17;98138.09;3082213;28;20378;-77
2021/01/29 04:14:29;;;;;;;;;;;;;;;10.20;79.94;98139.94;3086350;28;19992;-77
2021/01/29 04:16:02;;;;;;;;;;;;;;;10.20;80.09;98125.78;3083721;28;20001;-77
2021/01/29 04:17:37;;;;;;;;;;;;;;;10.17;80.14;98126.97;3087258;28;19930;-77
2021/01/29 04:19:12;;;;;;;;;;;;;;;10.19;80.02;98132.13;3082873;28;19933;-77
2021/01/29 04:20:47;;;;;;;;;;;;;;;10.19;80.17;98124.13;3084276;28;19930;-78
2021/01/29 04:22:20;;;;;;;;;;;;;;;10.20;79.96;98128.44;3083818;28;19947;-77
2021/01/29 04:23:54;;;;;;;;;;;;;;;10.17;79.97;98113.63;3085374;28;19981;-77
2021/01/29 04:25:30;;;;;;;;;;;;;;;10.16;80.01;98109.28;3081409;28;19933;-78
2021/01/29 04:27:04;;;;;;;;;;;;;;;10.16;79.80;98109.28;3081889;28;19933;-76
2021/01/29 04:28:39;;;;;;;;;;;;;;;10.17;80.03;98102.13;3084091;28;19933;-77
2021/01/29 04:30:11;;;;;;;;;;;;;;;10.17;80.23;98097.59;3080971;28;19930;-80
2021/01/29 04:31:45;;;;;;;;;;;;;;;10.11;80.29;98091.16;3085684;28;19933;-77
2021/01/29 04:33:19;;;;;;;;;;;;;;;10.11;80.40;98091.16;3083608;28;20309;-78
2021/01/29 04:34:53;;;;;;;;;;;;;;;10.11;80.40;98085.00;3072961;29;19927;-78
2021/01/29 04:36:30;;;;;;;;;;;;;;;10.07;80.39;98087.25;3077708;28;19997;-77
2021/01/29 04:38:09;;;;;;;;;;;;;;;10.04;80.61;98082.28;3086732;28;19926;-77
2021/01/29 04:39:43;;;;;;;;;;;;;;;10.02;80.39;98081.63;3080178;28;19926;-78
2021/01/29 04:43:47;;;;;;;;;;;;;;;10.07;80.29;98078.38;3143316;23;20396;-77
2021/01/29 04:45:26;;;;;;;;;;;;;;;10.05;80.49;98073.25;3094983;28;20304;-78
2021/01/29 04:47:13;;;;;;;;;;;;;;;10.05;80.51;98064.44;3096367;28;20444;-77
2021/01/29 04:48:48;;;;;;;;;;;;;;;10.07;80.64;98055.19;3084645;28;19926;-77
2021/01/29 04:50:29;;;;;;;;;;;;;;;10.08;80.51;98048.84;3098463;28;19926;-77
2021/01/29 04:52:25;;;;;;;;;;;;;;;10.07;80.43;98051.69;3094752;28;19988;-78
2021/01/29 04:54:09;;;;;;;;;;;;;;;10.00;80.66;98051.66;3088601;28;19931;-77
2021/01/29 04:55:59;;;;;;;;;;;;;;;10.06;80.64;98040.19;3085623;28;19926;-78
2021/01/29 04:57:47;;;;;;;;;;;;;;;10.06;80.68;98036.72;3090679;28;19953;-78
2021/01/29 04:59:42;;;;;;;;;;;;;;;10.12;80.47;98023.41;3092039;28;19942;-79
2021/01/29 05:01:23;;;;;;;;;;;;;;;10.09;80.30;98022.97;3093154;28;19977;-78
2021/01/29 05:03:24;;;;;;;;;;;;;;;10.09;80.16;98021.13;3091329;28;19933;-78
2021/01/29 05:05:21;;;;;;;;;;;;;;;10.07;80.35;98025.84;3059995;29;20330;-78
2021/01/29 05:07:01;;;;;;;;;;;;;;;10.11;80.07;98010.25;3066193;28;19926;-77
2021/01/29 05:10:51;;;;;;;;;;;;;;;10.10;79.99;98011.28;3086829;28;19926;-78
2021/01/29 05:16:52;;;;;;;;;;;;;;;10.10;79.79;97988.09;3086398;28;19922;-78
2021/01/29 05:22:58;;;;;;;;;;;;;;;10.14;79.41;97965.31;3080820;28;19926;-77
2021/01/29 05:24:49;;;;;;;;;;;;;;;10.13;79.50;97971.66;3084219;28;19926;-78
2021/01/29 05:26:51;;;;;;;;;;;;;;;10.18;79.23;97967.59;3089295;28;19933;-78
2021/01/29 05:28:39;;;;;;;;;;;;;;;10.14;79.01;97967.97;3085444;28;19926;-77
2021/01/29 05:34:44;;;;;;;;;;;;;;;10.14;78.87;97967.97;3074034;28;20277;-77
2021/01/29 05:36:25;;;;;;;;;;;;;;;10.14;78.63;97973.31;3073926;28;20275;-78
2021/01/29 05:42:25;;;;;;;;;;;;;;;10.10;78.85;97972.06;3073154;28;19918;-77
2021/01/29 05:44:08;;;;;;;;;;;;;;;10.04;79.14;97970.16;3077670;29;19934;-77
2021/01/29 05:48:12;;;;;;;;;;;;;;;9.84;79.90;97965.44;3102177;28;19922;-77
2021/01/29 05:50:17;;;;;;;;;;;;;;;9.79;80.57;97959.03;3084933;28;19933;-77
2021/01/29 05:52:10;;;;;;;;;;;;;;;9.67;81.07;97951.56;3084768;28;19949;-77
2021/01/29 05:53:55;;;;;;;;;;;;;;;9.64;81.14;97951.94;3089517;28;19926;-77
2021/01/29 05:55:47;;;;;;;;;;;;;;;9.59;81.17;97945.50;3084078;28;19926;-77
2021/01/29 05:57:45;;;;;;;;;;;;;;;9.56;81.15;97936.06;3086473;28;20427;-78
2021/01/29 05:59:43;;;;;;;;;;;;;;;9.57;81.25;97931.53;3093656;28;20027;-77
2021/01/29 06:01:29;;;;;;;;;;;;;;;9.56;81.17;97919.19;3031617;28;19926;-77
2021/01/29 06:03:24;;;;;;;;;;;;;;;9.56;81.54;97908.53;3062890;28;19926;-76
2021/01/29 06:05:27;;;;;;;;;;;;;;;9.51;81.28;97909.94;3075561;28;19926;-77
2021/01/29 06:09:15;;;;;;;;;;;;;;;9.43;82.33;97923.41;3077387;29;19933;-77
2021/01/29 06:11:00;;;;;;;;;;;;;;;9.40;82.56;97921.09;3087251;28;19934;-77
2021/01/29 06:12:44;;;;;;;;;;;;;;;9.41;82.46;97922.75;3088445;28;20297;-77
2021/01/29 06:16:43;;;;;;;;;;;;;;;9.40;82.72;97920.28;3085880;28;19965;-77
2021/01/29 06:18:33;;;;;;;;;;;;;;;9.37;83.23;97932.16;3084234;28;20329;-77
2021/01/29 06:20:33;;;;;;;;;;;;;;;9.39;83.38;97927.44;3089284;28;19933;-77
2021/01/29 06:22:26;;;;;;;;;;;;;;;9.38;83.21;97920.47;3083214;28;19949;-76
2021/01/29 06:24:17;;;;;;;;;;;;;;;9.36;83.48;97927.81;3089227;28;19934;-77
2021/01/29 06:25:54;;;;;;;;;;;;;;;9.37;83.41;97926.81;3086450;28;19926;-77
2021/01/29 06:27:59;;;;;;;;;;;;;;;9.38;83.51;97920.47;3085563;28;19926;-77
2021/01/29 06:29:38;;;;;;;;;;;;;;;9.38;83.53;97915.13;3087416;28;19926;-77
2021/01/29 06:31:29;;;;;;;;;;;;;;;9.33;83.90;97913.03;3083363;28;19926;-77
2021/01/29 06:33:16;;;;;;;;;;;;;;;9.35;83.88;97920.88;3085669;28;20503;-77
2021/01/29 06:34:54;;;;;;;;;;;;;;;9.36;83.45;97914.50;3087876;28;20332;-76
2021/01/29 06:36:35;;;;;;;;;;;;;;;9.40;83.40;97931.78;3083232;28;19926;-77
2021/01/29 06:38:14;;;;;;;;;;;;;;;9.39;83.54;97922.13;3093808;28;19930;-77
2021/01/29 06:39:58;;;;;;;;;;;;;;;9.42;83.31;97931.56;3092031;28;19926;-77
2021/01/29 06:41:44;;;;;;;;;;;;;;;9.45;83.26;97936.53;3089869;28;20014;-77
2021/01/29 06:43:32;;;;;;;;;;;;;;;9.49;82.97;97929.81;3083679;28;19949;-77
2021/01/29 06:45:24;;;;;;;;;;;;;;;9.59;82.68;97932.16;3085145;28;20075;-78
2021/01/29 06:47:14;;;;;;;;;;;;;;;9.68;82.01;97939.84;3089514;28;19933;-77
2021/01/29 06:48:56;;;;;;;;;;;;;;;9.87;81.01;97942.06;3083542;28;20400;-77
2021/01/29 06:50:45;;;;;;;;;;;;;;;9.89;80.92;97946.19;3088903;28;19976;-77
2021/01/29 06:52:36;;;;;;;;;;;;;;;9.99;80.11;97944.03;3082057;28;19926;-77
2021/01/29 06:54:27;;;;;;;;;;;;;;;9.95;80.13;97952.63;3082701;28;20317;-77
2021/01/29 06:56:16;;;;;;;;;;;;;;;10.08;79.05;97962.56;3088769;28;20009;-77
2021/01/29 06:58:10;;;;;;;;;;;;;;;10.15;78.29;97952.81;3084053;28;19937;-76
2021/01/29 07:02:05;;;;;;;;;;;;;;;10.32;76.79;97958.66;3058797;29;20434;-77
2021/01/29 07:03:56;;;;;;;;;;;;;;;10.38;76.07;97962.44;3068312;28;19938;-76
2021/01/29 07:05:50;;;;;;;;;;;;;;;10.32;76.59;97961.34;3087835;28;19930;-77
2021/01/29 07:07:27;;;;;;;;;;;;;;;10.33;76.44;97965.66;3085423;28;19933;-79
2021/01/29 07:09:09;;;;;;;;;;;;;;;10.29;76.27;97964.41;3086970;28;20300;-77
2021/01/29 07:11:04;;;;;;;;;;;;;;;10.31;76.24;97975.69;3079169;28;19984;-77
2021/01/29 07:12:47;;;;;;;;;;;;;;;10.37;75.34;97969.63;3087835;28;19933;-77
2021/01/29 07:14:25;;;;;;;;;;;;;;;10.29;75.90;97981.25;3093423;28;20392;-77
2021/01/29 07:16:06;;;;;;;;;;;;;;;10.34;74.75;97972.66;3080806;28;19926;-77
2021/01/29 07:17:53;;;;;;;;;;;;;;;10.30;74.97;97971.38;3096736;28;19930;-77
2021/01/29 07:19:56;;;;;;;;;;;;;;;10.33;74.51;97979.00;3078727;28;19926;-77
2021/01/29 07:21:38;;;;;;;;;;;;;;;10.28;75.00;97976.91;3083074;28;19933;-77
2021/01/29 07:23:37;;;;;;;;;;;;;;;10.28;74.52;97974.25;3089310;28;19933;-78
2021/01/29 07:25:12;;;;;;;;;;;;;;;10.33;74.20;97976.34;3086146;28;19944;-76
2021/01/29 07:27:08;;;;;;;;;;;;;;;10.27;74.76;97977.13;3088936;28;19949;-77
2021/01/29 07:28:43;;;;;;;;;;;;;;;10.33;74.26;97980.88;3086367;28;20028;-77
2021/01/29 07:30:29;;;;;;;;;;;;;;;10.29;74.81;97978.56;3086632;28;20333;-77
2021/01/29 07:32:07;;;;;;;;;;;;;;;10.23;74.91;97986.53;3076721;28;20359;-77
2021/01/29 07:33:43;;;;;;;;;;;;;;;10.32;74.55;97976.53;3087112;28;19961;-77
2021/01/29 07:35:26;;;;;;;;;;;;;;;10.30;74.33;97979.38;3089424;28;19933;-78
2021/01/29 07:37:11;;;;;;;;;;;;;;;10.27;74.39;97983.28;3087296;28;19934;-78
2021/01/29 07:38:58;;;;;;;;;;;;;;;10.28;73.89;97981.44;3087927;28;19972;-78
2021/01/29 07:40:46;;;;;;;;;;;;;;;10.34;73.74;97986.00;3099219;28;19926;-78
2021/01/29 07:42:35;;;;;;;;;;;;;;;10.32;73.93;97992.56;3091762;28;19937;-78
2021/01/29 07:44:13;;;;;;;;;;;;;;;10.30;73.70;97993.59;3094380;28;20218;-78
2021/01/29 07:45:59;;;;;;;;;;;;;;;10.29;73.93;97985.78;3093848;28;19926;-78
2021/01/29 07:47:47;;;;;;;;;;;;;;;10.26;73.63;97986.97;3090351;28;19949;-80
2021/01/29 07:49:21;;;;;;;;;;;;;;;10.32;73.54;97992.56;3087246;28;19937;-78
2021/01/29 07:50:56;;;;;;;;;;;;;;;10.30;73.40;97988.25;3090927;28;19973;-77
2021/01/29 07:52:43;;;;;;;;;;;;;;;10.21;73.17;97983.22;3086765;28;19937;-77
2021/01/29 07:54:44;;;;;;;;;;;;;;;10.27;72.80;97998.50;3088553;28;19933;-79
2021/01/29 07:56:36;;;;;;;;;;;;;;;10.23;73.04;97991.88;3090117;28;19927;-78
2021/01/29 07:58:16;;;;;;;;;;;;;;;10.26;72.97;98015.53;3104492;28;19937;-78
2021/01/29 08:00:00;;;;;;;;;;;;;;;10.34;72.52;98003.88;3087952;28;19965;-78
2021/01/29 08:01:48;;;;;;;;;;;;;;;10.27;72.53;97993.16;3086203;28;19926;-77
2021/01/29 08:05:18;;;;;;;;;;;;;;;10.29;72.56;97991.94;3088792;28;19965;-78
2021/01/29 08:06:59;;;;;;;;;;;;;;;10.33;72.23;97984.34;3084519;28;19933;-77
2021/01/29 08:08:54;;;;;;;;;;;;;;;10.27;72.59;98014.50;3088569;28;19994;-78
2021/01/29 08:10:29;;;;;;;;;;;;;;;10.26;72.36;98005.66;3086885;28;19926;-78
2021/01/29 08:12:02;;;;;;;;;;;;;;;10.28;72.69;98013.50;3088504;28;19976;-78
2021/01/29 08:13:38;;;;;;;;;;;;;;;10.28;72.61;98006.28;3089026;28;19930;-78
2021/01/29 08:15:27;;;;;;;;;;;;;;;10.30;72.46;98014.09;3095355;28;19925;-78
2021/01/29 08:17:12;;;;;;;;;;;;;;;10.30;72.25;98014.94;3086985;28;19930;-78
2021/01/29 08:19:00;;;;;;;;;;;;;;;10.42;71.33;97995.75;3086276;28;19926;-78
2021/01/29 08:20:36;;;;;;;;;;;;;;;10.40;71.59;98016.50;3090604;28;19973;-77
2021/01/29 08:22:36;;;;;;;;;;;;;;;10.44;71.52;98021.25;3085415;28;20314;-77
2021/01/29 08:24:14;;;;;;;;;;;;;;;10.39;71.94;98017.50;3091414;28;19969;-77
2021/01/29 08:26:13;;;;;;;;;;;;;;;10.43;71.53;98006.25;3076405;28;19926;-77
2021/01/29 08:28:09;;;;;;;;;;;;;;;10.48;70.78;98005.66;3048653;28;19927;-77
2021/01/29 08:29:59;;;;;;;;;;;;;;;10.51;70.81;98007.94;3050887;29;20035;-77
2021/01/29 08:31:37;;;;;;;;;;;;;;;10.50;70.61;98025.00;3064036;28;19969;-77
2021/01/29 08:33:25;;;;;;;;;;;;;;;10.52;70.37;98014.09;3089107;28;20016;-77
2021/01/29 08:35:16;;;;;;;;;;;;;;;10.53;70.27;98007.75;3091285;28;19927;-78
2021/01/29 08:39:02;;;;;;;;;;;;;;;10.49;71.12;98031.34;3085453;28;20422;-77
2021/01/29 08:40:39;;;;;;;;;;;;;;;10.47;71.40;98022.69;3074281;28;19932;-77
2021/01/29 08:42:15;;;;;;;;;;;;;;;10.45;71.85;98028.25;3093086;28;19976;-78
2021/01/29 08:44:06;;;;;;;;;;;;;;;10.48;71.83;98031.56;3085728;28;19980;-77
2021/01/29 08:45:43;;;;;;;;;;;;;;;10.43;71.88;98032.94;3084519;28;19973;-78
2021/01/29 08:47:21;;;;;;;;;;;;;;;10.50;71.65;98027.66;3081421;28;19927;-79
2021/01/29 08:49:02;;;;;;;;;;;;;;;10.50;71.49;98025.00;3084790;28;19962;-78
2021/01/29 08:50:43;;;;;;;;;;;;;;;10.49;71.77;98041.19;3083960;28;20489;-80
2021/01/29 08:52:19;;;;;;;;;;;;;;;10.49;72.10;98038.53;3084485;28;19930;-78
2021/01/29 08:54:03;;;;;;;;;;;;;;;10.48;71.85;98036.91;3082930;28;19962;-79
2021/01/29 08:55:42;;;;;;;;;;;;;;;10.49;71.79;98054.56;3092307;28;19977;-78
2021/01/29 08:57:19;;;;;;;;;;;;;;;10.58;71.65;98043.56;3083687;28;19930;-79
2021/01/29 08:58:53;;;;;;;;;;;;;;;10.57;72.19;98038.41;3088798;28;20464;-80
2021/01/29 09:00:25;;;;;;;;;;;;;;;10.53;72.52;98047.81;3084994;28;19969;-79
2021/01/29 09:02:00;;;;;;;;;;;;;;;10.55;72.61;98037.78;3090623;28;19961;-79
2021/01/29 09:03:34;;;;;;;;;;;;;;;10.52;73.10;98041.66;3084799;28;19980;-79
2021/01/29 09:05:07;;;;;;;;;;;;;;;10.50;73.40;98050.88;3082878;28;19926;-80
2021/01/29 09:06:39;;;;;;;;;;;;;;;10.59;73.19;98041.69;3085645;28;19977;-79
2021/01/29 09:08:15;;;;;;;;;;;;;;;10.61;73.24;98053.03;3087536;28;20015;-79
2021/01/29 09:09:46;;;;;;;;;;;;;;;10.67;73.21;98049.59;3086644;28;19955;-80
2021/01/29 09:11:22;;;;;;;;;;;;;;;10.54;73.18;98047.63;3091728;28;19926;-80
2021/01/29 09:12:58;;;;;;;;;;;;;;;10.61;72.87;98050.34;3087577;28;19927;-79
2021/01/29 09:14:35;;;;;;;;;;;;;;;10.70;71.96;98041.16;3099090;28;19938;-78
2021/01/29 09:16:08;;;;;;;;;;;;;;;10.72;71.29;98052.50;3092158;28;19981;-80
2021/01/29 09:17:44;;;;;;;;;;;;;;;10.74;71.10;98038.94;3106616;28;19914;-79
2021/01/29 09:19:16;;;;;;;;;;;;;;;10.89;69.42;98057.53;3095851;28;19921;-77
2021/01/29 09:20:50;;;;;;;;;;;;;;;10.95;68.25;98046.09;3098773;28;19926;-78
2021/01/29 09:22:25;;;;;;;;;;;;;;;11.02;67.81;98059.47;3091687;28;19933;-80
2021/01/29 09:24:00;;;;;;;;;;;;;;;11.06;67.90;98058.06;3091518;28;19926;-79
2021/01/29 09:25:40;;;;;;;;;;;;;;;11.10;66.96;98071.88;3094288;28;19930;-79